Maiden, NC

7:50 AM EDT on July 03, 2015 (GMT -0400)
Lincolnton | | Change Station
CLOSE
Current Station
Personal Weather Station
Location: Lincolnton, NC
Elevation: 804 ft
Nearby Weather Stations

Elev 804 ft 35.50 °N, 81.27 °W | Updated 12 minutes ago

Overcast
Overcast
71.4 °F
Feels Like 72 °F
N
2.2
Wind Variable Wind from SW

Today
High -- | Low -- °F
--% Chance of Precip.
Yesterday
High -- | Low -- °F
Precip. -- in
6:13 AM 8:44 PM
Full, 97% visible
Pressure 29.95 in
Visibility 10.0 miles
Clouds Overcast 900 ft
Heat Index 72 °F
Dew Point 65 °F
Humidity 80%
Rainfall 0.00 in
Snow Depth Not available.
UV 0 out of 12
Pollen .50 out of 12
Air Quality Not available.
Flu Activity Not available.
METAR KIPJ 031135Z AUTO 21003KT 10SM OVC009 21/19 A2995 RMK AO2 T02100193

More Conditions Fewer Conditions

Pressure 29.95 in
Visibility 10.0 miles
Clouds Overcast 900 ft
Heat Index 72 °F
Dew Point 65 °F
Humidity 80%
Rainfall 0.00 in
Snow Depth Not available.
UV 0 out of 12
Pollen .50 out of 12
Air Quality Not available.
Flu Activity Not available.
METAR KIPJ 031135Z AUTO 21003KT 10SM OVC009 21/19 A2995 RMK AO2 T02100193

More Conditions Fewer Conditions

10-Day Weather Forecast

×

Almanac

Astronomy

Jul. 03, 2015 Rise Set
Actual Time
Civil Twilight
Nautical Twilight
Astronomical Twilight
Moon
Length of Visible Light
Length of Day
Tomorrow will be .
, % of the Moon is Illuminated

Today's Extremes

State Highs State Lows

Community

WunderPhotos

Upload Photos

1,834,656 photos uploaded!

WunderBlogs® & News

Nearby

Air Quality

  Air Quality AQ Index Pollutant
Not available.

Snow Depth

Station Depth Elevation

Earthquake Activity

City Distance Mag. Time & Date
Minimum magnitude displayed is 2.5.

Coastal Water Temperatures

Place Temperature

Stations

Nearby Weather Stations

Station Location Temp. Windchill Dew Point Humidity Wind Precip. Elev Updated Type